createdAt,value
2017-09-25T00:00:58.070Z,0
2017-09-25T00:01:59.438Z,0
2017-09-25T00:03:00.849Z,0
2017-09-25T00:04:02.222Z,0
2017-09-25T00:05:03.628Z,0
2017-09-25T00:06:05.381Z,0
2017-09-25T00:07:06.819Z,0
2017-09-25T00:08:08.186Z,0
2017-09-25T00:09:09.597Z,0
2017-09-25T00:10:11.350Z,0
2017-09-25T00:11:12.786Z,0
2017-09-25T00:12:14.185Z,0
2017-09-25T00:13:15.566Z,0
2017-09-25T00:14:16.932Z,0
2017-09-25T00:15:18.346Z,0
2017-09-25T00:16:19.714Z,0
2017-09-25T00:17:21.125Z,0
2017-09-25T00:18:22.492Z,0
2017-09-25T00:19:23.905Z,0
2017-09-25T00:20:25.279Z,0
2017-09-25T00:21:26.694Z,0
2017-09-25T00:22:28.059Z,0
2017-09-25T00:23:29.469Z,0
2017-09-25T00:24:30.839Z,0
2017-09-25T00:25:32.249Z,0
2017-09-25T00:26:33.617Z,0
2017-09-25T00:27:35.025Z,0
2017-09-25T00:28:36.397Z,0
2017-09-25T00:29:37.809Z,0
2017-09-25T00:30:39.179Z,0
2017-09-25T00:31:40.583Z,0
2017-09-25T00:32:41.956Z,0
2017-09-25T00:33:43.363Z,0
2017-09-25T00:34:44.734Z,0
2017-09-25T00:35:46.142Z,0
2017-09-25T00:36:47.508Z,0
2017-09-25T00:37:48.920Z,0
2017-09-25T00:38:50.291Z,0
2017-09-25T00:39:51.701Z,0
2017-09-25T00:40:53.070Z,0
2017-09-25T00:41:54.481Z,0
2017-09-25T00:42:55.863Z,0
2017-09-25T00:43:57.228Z,0
2017-09-25T00:44:58.975Z,0
2017-09-25T00:46:00.448Z,0
2017-09-25T00:47:01.821Z,0
2017-09-25T00:48:03.232Z,0
2017-09-25T00:49:04.604Z,0
2017-09-25T00:50:06.383Z,0
2017-09-25T00:51:07.753Z,0
2017-09-25T00:52:09.200Z,0
2017-09-25T00:53:10.569Z,0
2017-09-25T00:54:11.980Z,0
2017-09-25T00:55:13.351Z,0
2017-09-25T00:56:14.759Z,0
2017-09-25T00:57:16.125Z,0
2017-09-25T00:58:17.538Z,0
2017-09-25T00:59:18.906Z,0
2017-09-25T01:00:20.690Z,0
2017-09-25T01:01:22.067Z,0
2017-09-25T01:02:23.508Z,0
2017-09-25T01:03:24.884Z,0
2017-09-25T01:04:26.289Z,0
2017-09-25T01:05:27.655Z,0
2017-09-25T01:06:29.066Z,0
2017-09-25T01:07:30.432Z,0
2017-09-25T01:08:31.846Z,0
2017-09-25T01:09:33.213Z,0
2017-09-25T01:10:34.624Z,0
2017-09-25T01:11:35.999Z,0
2017-09-25T01:12:37.404Z,0
2017-09-25T01:13:38.771Z,0
2017-09-25T01:14:40.183Z,0
2017-09-25T01:15:41.556Z,0
2017-09-25T01:16:42.962Z,0
2017-09-25T01:17:44.334Z,0
2017-09-25T01:18:45.743Z,0
2017-09-25T01:19:47.113Z,0
2017-09-25T01:20:48.528Z,0
2017-09-25T01:21:49.895Z,0
2017-09-25T01:22:51.310Z,0
2017-09-25T01:23:52.672Z,0
2017-09-25T01:24:54.091Z,0
2017-09-25T01:25:55.457Z,0
2017-09-25T01:26:56.880Z,0
2017-09-25T01:27:58.246Z,0
2017-09-25T01:28:59.645Z,0
2017-09-25T01:30:01.015Z,0
2017-09-25T01:31:02.424Z,0
2017-09-25T01:32:03.799Z,0
2017-09-25T01:33:05.201Z,0
2017-09-25T01:34:06.572Z,0
2017-09-25T01:35:07.981Z,0
2017-09-25T01:36:09.350Z,0
2017-09-25T01:37:10.759Z,0
2017-09-25T01:38:12.132Z,0
2017-09-25T01:39:13.536Z,0
2017-09-25T01:40:14.909Z,0
2017-09-25T01:41:16.326Z,0
2017-09-25T01:42:17.736Z,0
2017-09-25T01:43:19.150Z,0
2017-09-25T01:44:20.522Z,0
2017-09-25T01:45:21.976Z,0
2017-09-25T01:46:23.350Z,0
2017-09-25T01:47:24.759Z,0
2017-09-25T01:48:26.127Z,0
2017-09-25T01:49:27.536Z,0
2017-09-25T01:50:28.913Z,0
2017-09-25T01:51:30.320Z,0
2017-09-25T01:52:31.687Z,0
2017-09-25T01:53:33.102Z,0
2017-09-25T01:54:34.473Z,0
2017-09-25T01:55:35.879Z,0
2017-09-25T01:56:37.250Z,0
2017-09-25T01:57:38.654Z,0
2017-09-25T01:58:40.031Z,0
2017-09-25T01:59:41.435Z,0
2017-09-25T02:00:42.809Z,0
2017-09-25T02:01:44.217Z,0
2017-09-25T02:02:45.582Z,0
2017-09-25T02:03:46.998Z,0
2017-09-25T02:04:48.368Z,0
2017-09-25T02:05:49.772Z,0
2017-09-25T02:06:51.141Z,0
2017-09-25T02:07:52.572Z,0
2017-09-25T02:08:53.938Z,0
2017-09-25T02:09:55.333Z,0
2017-09-25T02:10:56.703Z,0
2017-09-25T02:11:58.116Z,0
2017-09-25T02:12:59.491Z,0
2017-09-25T02:14:00.891Z,0
2017-09-25T02:15:02.265Z,0
2017-09-25T02:16:03.674Z,0
2017-09-25T02:17:05.043Z,0
2017-09-25T02:18:06.482Z,0
2017-09-25T02:19:07.826Z,0
2017-09-25T02:20:09.233Z,0
2017-09-25T02:21:10.608Z,0
2017-09-25T02:22:12.011Z,0
2017-09-25T02:23:13.382Z,0
2017-09-25T02:24:14.804Z,0
2017-09-25T02:25:16.185Z,0
2017-09-25T02:26:17.580Z,0
2017-09-25T02:27:18.949Z,0
2017-09-25T02:28:20.352Z,0
2017-09-25T02:29:21.721Z,0
2017-09-25T02:30:23.130Z,0
2017-09-25T02:31:24.499Z,0
2017-09-25T02:32:25.914Z,0
2017-09-25T02:33:27.279Z,0
2017-09-25T02:34:28.698Z,0
2017-09-25T02:35:30.056Z,0
2017-09-25T02:36:31.469Z,0
2017-09-25T02:37:32.838Z,0
2017-09-25T02:38:34.249Z,0
2017-09-25T02:39:35.617Z,0
2017-09-25T02:40:37.033Z,0
2017-09-25T02:41:38.400Z,0
2017-09-25T02:42:39.806Z,0
2017-09-25T02:43:41.179Z,0
2017-09-25T02:44:42.584Z,0
2017-09-25T02:45:43.957Z,0
2017-09-25T02:46:45.372Z,0
2017-09-25T02:47:46.772Z,0
2017-09-25T02:48:48.146Z,0
2017-09-25T02:49:49.513Z,0
2017-09-25T02:50:50.925Z,0
2017-09-25T02:51:52.297Z,0
2017-09-25T02:52:53.705Z,0
2017-09-25T02:53:55.081Z,0
2017-09-25T02:54:56.484Z,0
2017-09-25T02:55:57.855Z,0
2017-09-25T02:56:59.264Z,0
2017-09-25T02:58:00.633Z,0
2017-09-25T02:59:02.041Z,0
2017-09-25T03:00:03.410Z,0
2017-09-25T03:01:04.823Z,0
2017-09-25T03:02:06.194Z,0
2017-09-25T03:03:07.603Z,0
2017-09-25T03:04:08.970Z,0
2017-09-25T03:05:10.379Z,0
2017-09-25T03:06:11.750Z,0
2017-09-25T03:07:13.162Z,0
2017-09-25T03:08:14.538Z,0
2017-09-25T03:09:15.939Z,0
2017-09-25T03:10:17.310Z,0
2017-09-25T03:11:18.721Z,0
2017-09-25T03:12:20.091Z,0
2017-09-25T03:13:21.502Z,0
2017-09-25T03:14:22.872Z,0
2017-09-25T03:15:24.293Z,0
2017-09-25T03:16:25.652Z,0
2017-09-25T03:17:27.060Z,0
2017-09-25T03:18:28.432Z,0
2017-09-25T03:19:29.835Z,0
2017-09-25T03:20:31.212Z,0
2017-09-25T03:21:32.619Z,0
2017-09-25T03:22:33.989Z,0
2017-09-25T03:23:35.398Z,0
2017-09-25T03:24:36.765Z,0
2017-09-25T03:25:38.220Z,0
2017-09-25T03:26:39.566Z,0
2017-09-25T03:27:40.955Z,0
2017-09-25T03:28:42.325Z,0
2017-09-25T03:29:43.735Z,0
2017-09-25T03:30:45.106Z,0
2017-09-25T03:31:46.517Z,0
2017-09-25T03:32:47.887Z,0
2017-09-25T03:33:49.296Z,0
2017-09-25T03:34:50.667Z,0
2017-09-25T03:35:52.079Z,0
2017-09-25T03:36:53.444Z,0
2017-09-25T03:37:54.855Z,0
2017-09-25T03:38:56.226Z,0
2017-09-25T03:39:57.635Z,0
2017-09-25T03:40:59.006Z,0
2017-09-25T03:42:00.416Z,0
2017-09-25T03:43:01.785Z,0
2017-09-25T03:44:03.190Z,0
2017-09-25T03:45:04.561Z,0
2017-09-25T03:46:05.973Z,0
2017-09-25T03:47:07.346Z,0
2017-09-25T03:48:08.752Z,0
2017-09-25T03:49:10.124Z,0
2017-09-25T03:50:11.537Z,0
2017-09-25T03:51:12.908Z,0
2017-09-25T03:52:14.307Z,0
2017-09-25T03:53:15.681Z,0
2017-09-25T03:54:17.089Z,0
2017-09-25T03:55:18.462Z,0
2017-09-25T03:56:19.871Z,0
2017-09-25T03:57:21.618Z,0
2017-09-25T03:58:23.825Z,0
2017-09-25T03:59:25.566Z,0
2017-09-25T04:00:26.967Z,0
2017-09-25T04:01:28.340Z,0
2017-09-25T04:02:29.747Z,0
2017-09-25T04:03:31.123Z,0
2017-09-25T04:04:32.526Z,0
2017-09-25T04:05:33.893Z,0
2017-09-25T04:06:35.307Z,0
2017-09-25T04:07:36.681Z,0
2017-09-25T04:08:38.084Z,0
2017-09-25T04:09:39.455Z,0
2017-09-25T04:10:40.861Z,0
2017-09-25T04:11:42.238Z,0
2017-09-25T04:12:43.642Z,0
2017-09-25T04:13:45.014Z,0
2017-09-25T04:14:46.423Z,0
2017-09-25T04:15:47.795Z,0
2017-09-25T04:16:49.200Z,0
2017-09-25T04:17:50.954Z,0
2017-09-25T04:18:52.393Z,0
2017-09-25T04:19:53.760Z,0
2017-09-25T04:20:55.171Z,0
2017-09-25T04:21:56.542Z,0
2017-09-25T04:22:57.956Z,0
2017-09-25T04:23:59.324Z,0
2017-09-25T04:25:00.728Z,0
2017-09-25T04:26:02.109Z,0
2017-09-25T04:27:03.753Z,0
2017-09-25T04:28:05.119Z,0
2017-09-25T04:29:07.010Z,0
2017-09-25T04:30:08.375Z,0
2017-09-25T04:31:09.782Z,0
2017-09-25T04:32:11.160Z,0
2017-09-25T04:33:12.565Z,0
2017-09-25T04:34:13.932Z,0
2017-09-25T04:35:15.346Z,0
2017-09-25T04:36:16.717Z,0
2017-09-25T04:37:18.123Z,0
2017-09-25T04:38:19.491Z,0
2017-09-25T04:39:20.903Z,0
2017-09-25T04:40:22.275Z,0
2017-09-25T04:41:23.696Z,0
2017-09-25T04:42:25.059Z,0
2017-09-25T04:43:26.576Z,0
2017-09-25T04:44:27.898Z,0
2017-09-25T04:45:29.342Z,0
2017-09-25T04:46:30.723Z,0
2017-09-25T04:47:32.128Z,0
2017-09-25T04:48:33.497Z,0
2017-09-25T04:49:34.906Z,0
2017-09-25T04:50:36.654Z,0
2017-09-25T04:51:38.097Z,0
2017-09-25T04:52:39.470Z,0
2017-09-25T04:53:40.874Z,0
2017-09-25T04:54:42.253Z,4
2017-09-25T04:55:43.669Z,4
2017-09-25T04:56:45.029Z,4
2017-09-25T04:57:46.433Z,0
2017-09-25T04:58:47.807Z,4
2017-09-25T04:59:49.213Z,8
2017-09-25T05:00:50.587Z,4
2017-09-25T05:01:51.991Z,8
2017-09-25T05:02:53.363Z,8
2017-09-25T05:03:54.772Z,12
2017-09-25T05:04:56.143Z,12
2017-09-25T05:05:57.542Z,16
2017-09-25T05:06:58.869Z,16
2017-09-25T05:08:00.330Z,20
2017-09-25T05:09:01.702Z,28
2017-09-25T05:10:03.110Z,36
2017-09-25T05:11:04.509Z,40
2017-09-25T05:12:05.888Z,48
2017-09-25T05:13:07.261Z,56
2017-09-25T05:14:08.673Z,68
2017-09-25T05:15:10.046Z,80
2017-09-25T05:16:11.547Z,92
2017-09-25T05:17:12.921Z,100
2017-09-25T05:18:14.340Z,116
2017-09-25T05:19:15.803Z,136
2017-09-25T05:20:17.214Z,156
2017-09-25T05:21:18.589Z,172
2017-09-25T05:22:20.002Z,196
2017-09-25T05:23:21.403Z,216
2017-09-25T05:24:22.872Z,232
2017-09-25T05:25:24.255Z,256
2017-09-25T05:26:25.660Z,276
2017-09-25T05:27:27.038Z,304
2017-09-25T05:28:28.435Z,336
2017-09-25T05:29:29.813Z,364
2017-09-25T05:30:31.211Z,396
2017-09-25T05:31:32.619Z,416
2017-09-25T05:32:34.153Z,444
2017-09-25T05:33:35.544Z,476
2017-09-25T05:34:36.998Z,524
2017-09-25T05:35:38.401Z,528
2017-09-25T05:36:39.865Z,580
2017-09-25T05:37:41.269Z,628
2017-09-25T05:38:42.763Z,676
2017-09-25T05:39:44.172Z,744
2017-09-25T05:40:46.074Z,780
2017-09-25T05:41:47.499Z,908
2017-09-25T05:42:48.970Z,948
2017-09-25T05:43:50.377Z,960
2017-09-25T05:44:51.805Z,1004
2017-09-25T05:45:53.202Z,1016
2017-09-25T05:46:54.704Z,1080
2017-09-25T05:47:56.083Z,1072
2017-09-25T05:48:57.578Z,1088
2017-09-25T05:49:58.998Z,1132
2017-09-25T05:51:00.467Z,1112
2017-09-25T05:52:01.857Z,1148
2017-09-25T05:53:03.335Z,1236
2017-09-25T05:54:04.739Z,1352
2017-09-25T05:55:06.212Z,1412
2017-09-25T05:56:07.643Z,1472
2017-09-25T05:57:09.103Z,1564
2017-09-25T05:58:10.644Z,1692
2017-09-25T05:59:12.111Z,1852
2017-09-25T06:00:13.505Z,2040
2017-09-25T06:01:14.991Z,2080
2017-09-25T06:02:16.423Z,2124
2017-09-25T06:03:17.887Z,2168
2017-09-25T06:04:19.273Z,2236
2017-09-25T06:05:20.819Z,2304
2017-09-25T06:06:22.288Z,2488
2017-09-25T06:07:23.767Z,2712
2017-09-25T06:08:25.250Z,2860
2017-09-25T06:09:26.819Z,2948
2017-09-25T06:10:28.260Z,3108
2017-09-25T06:11:29.730Z,3104
2017-09-25T06:12:31.188Z,3100
2017-09-25T06:13:32.762Z,3212
2017-09-25T06:14:34.191Z,3240
2017-09-25T06:15:35.709Z,3184
2017-09-25T06:16:37.125Z,3176
2017-09-25T06:17:38.762Z,3140
2017-09-25T06:18:40.206Z,3196
2017-09-25T06:19:41.699Z,3464
2017-09-25T06:20:43.125Z,3484
2017-09-25T06:21:44.654Z,3428
2017-09-25T06:22:46.089Z,3448
2017-09-25T06:23:47.628Z,3568
2017-09-25T06:24:49.449Z,3784
2017-09-25T06:25:50.968Z,4044
2017-09-25T06:26:52.466Z,4160
2017-09-25T06:27:54.051Z,4408
2017-09-25T06:28:55.464Z,4620
2017-09-25T06:29:57.039Z,4736
2017-09-25T06:30:58.495Z,4976
2017-09-25T06:32:00.000Z,5084
2017-09-25T06:33:01.485Z,5092
2017-09-25T06:34:02.972Z,5204
2017-09-25T06:35:04.424Z,5332
2017-09-25T06:36:05.963Z,5540
2017-09-25T06:37:07.475Z,5776
2017-09-25T06:38:08.960Z,5876
2017-09-25T06:39:10.428Z,5952
2017-09-25T06:40:11.874Z,6172
2017-09-25T06:41:13.327Z,6460
2017-09-25T06:42:14.781Z,6800
2017-09-25T06:43:16.225Z,6952
2017-09-25T06:44:17.692Z,6664
2017-09-25T06:45:19.122Z,6600
2017-09-25T06:46:20.579Z,6992
2017-09-25T06:47:22.051Z,7008
2017-09-25T06:48:23.532Z,6784
2017-09-25T06:49:24.972Z,6516
2017-09-25T06:50:26.423Z,6508
2017-09-25T06:51:27.854Z,6948
2017-09-25T06:52:29.335Z,7216
2017-09-25T06:53:30.761Z,7516
2017-09-25T06:54:32.225Z,7572
2017-09-25T06:55:33.658Z,7520
2017-09-25T06:56:35.140Z,8108
2017-09-25T06:57:36.601Z,8600
2017-09-25T06:58:38.024Z,8900
2017-09-25T06:59:39.472Z,9020
2017-09-25T07:00:40.924Z,9028
2017-09-25T07:01:42.388Z,9044
2017-09-25T07:02:43.843Z,9132
2017-09-25T07:03:45.279Z,9276
2017-09-25T07:04:46.730Z,9768
2017-09-25T07:05:48.141Z,10176
2017-09-25T07:06:49.605Z,10276
2017-09-25T07:07:51.016Z,10644
2017-09-25T07:08:52.469Z,10904
2017-09-25T07:09:53.900Z,10676
2017-09-25T07:10:55.335Z,10656
2017-09-25T07:11:56.749Z,11116
2017-09-25T07:12:58.208Z,12052
2017-09-25T07:13:59.631Z,12404
2017-09-25T07:15:01.144Z,12548
2017-09-25T07:16:02.965Z,12056
2017-09-25T07:17:04.508Z,12092
2017-09-25T07:18:05.942Z,11760
2017-09-25T07:19:07.693Z,11628
2017-09-25T07:20:09.163Z,11300
2017-09-25T07:21:10.606Z,10964
2017-09-25T07:22:12.093Z,11168
2017-09-25T07:23:13.545Z,10580
2017-09-25T07:24:14.984Z,10660
2017-09-25T07:25:16.430Z,11268
2017-09-25T07:26:17.909Z,12536
2017-09-25T07:27:19.344Z,11232
2017-09-25T07:28:20.753Z,10744
2017-09-25T07:29:22.193Z,10928
2017-09-25T07:30:23.618Z,12692
2017-09-25T07:31:25.108Z,13012
2017-09-25T07:32:26.537Z,11596
2017-09-25T07:33:27.976Z,11868
2017-09-25T07:34:29.838Z,14672
2017-09-25T07:35:31.350Z,15000
2017-09-25T07:36:32.759Z,14908
2017-09-25T07:37:34.239Z,13276
2017-09-25T07:38:35.699Z,14612
2017-09-25T07:39:37.144Z,14892
2017-09-25T07:40:38.587Z,15852
2017-09-25T07:41:40.448Z,16556
2017-09-25T07:42:41.884Z,14644
2017-09-25T07:43:43.328Z,13272
2017-09-25T07:44:44.750Z,13344
2017-09-25T07:45:47.554Z,13576
2017-09-25T07:46:48.989Z,13304
2017-09-25T07:47:50.428Z,14152
2017-09-25T07:48:51.860Z,13952
2017-09-25T07:49:53.333Z,13876
2017-09-25T07:50:55.131Z,14040
2017-09-25T07:51:56.598Z,13804
2017-09-25T07:52:58.047Z,12600
2017-09-25T07:53:59.587Z,14512
2017-09-25T07:55:01.043Z,17440
2017-09-25T07:56:02.892Z,15204
2017-09-25T07:57:04.320Z,13196
2017-09-25T07:58:05.860Z,13792
2017-09-25T07:59:07.343Z,14448
2017-09-25T08:00:08.830Z,16460
2017-09-25T08:01:10.270Z,16264
2017-09-25T08:02:12.290Z,14200
2017-09-25T08:03:13.683Z,13656
2017-09-25T08:04:15.786Z,13696
2017-09-25T08:05:17.227Z,15488
2017-09-25T08:06:18.872Z,14924
2017-09-25T08:07:20.234Z,13624
2017-09-25T08:08:21.736Z,14852
2017-09-25T08:09:23.117Z,14588
2017-09-25T08:10:24.608Z,13692
2017-09-25T08:11:26.023Z,14672
2017-09-25T08:12:27.506Z,16276
2017-09-25T08:13:28.997Z,17312
2017-09-25T08:14:30.685Z,15952
2017-09-25T08:15:32.074Z,15392
2017-09-25T08:16:33.567Z,15848
2017-09-25T08:17:34.952Z,16644
2017-09-25T08:18:36.452Z,19872
2017-09-25T08:19:37.828Z,20640
2017-09-25T08:20:39.325Z,16536
2017-09-25T08:21:40.729Z,14064
2017-09-25T08:22:42.213Z,13904
2017-09-25T08:23:43.601Z,13912
2017-09-25T08:24:45.097Z,15008
2017-09-25T08:25:46.480Z,16564
2017-09-25T08:26:47.976Z,16628
2017-09-25T08:27:49.372Z,15380
2017-09-25T08:28:50.862Z,14872
2017-09-25T08:29:52.246Z,15188
2017-09-25T08:30:53.779Z,15436
2017-09-25T08:31:55.206Z,16924
2017-09-25T08:32:56.662Z,21344
2017-09-25T08:33:58.075Z,22432
2017-09-25T08:34:59.531Z,22560
2017-09-25T08:36:00.955Z,22432
2017-09-25T08:37:02.433Z,23680
2017-09-25T08:38:03.828Z,23904
2017-09-25T08:39:05.278Z,22528
2017-09-25T08:40:06.726Z,22912
2017-09-25T08:41:08.171Z,25920
2017-09-25T08:42:09.569Z,30336
2017-09-25T08:43:11.068Z,30784
2017-09-25T08:44:12.499Z,29824
2017-09-25T08:45:13.941Z,26048
2017-09-25T08:46:15.366Z,23904
2017-09-25T08:47:16.849Z,25504
2017-09-25T08:48:18.264Z,25568
2017-09-25T08:49:19.729Z,23552
2017-09-25T08:50:21.136Z,22816
2017-09-25T08:51:22.597Z,23200
2017-09-25T08:52:24.024Z,25376
2017-09-25T08:53:25.481Z,27808
2017-09-25T08:54:26.903Z,26432
2017-09-25T08:55:28.348Z,23392
2017-09-25T08:56:29.755Z,21600
2017-09-25T08:57:31.263Z,22368
2017-09-25T08:58:32.678Z,25120
2017-09-25T08:59:34.114Z,25216
2017-09-25T09:00:35.566Z,24416
2017-09-25T09:01:37.036Z,24320
2017-09-25T09:02:38.448Z,22240
2017-09-25T09:03:39.992Z,23232
2017-09-25T09:04:41.431Z,34720
2017-09-25T09:05:42.876Z,36896
2017-09-25T09:06:44.267Z,36512
2017-09-25T09:07:45.765Z,33952
2017-09-25T09:08:47.196Z,30208
2017-09-25T09:09:48.641Z,26688
2017-09-25T09:10:50.041Z,25920
2017-09-25T09:11:51.490Z,25344
2017-09-25T09:12:52.863Z,28000
2017-09-25T09:13:54.270Z,28576
2017-09-25T09:14:55.677Z,27008
2017-09-25T09:15:57.177Z,27168
2017-09-25T09:16:58.627Z,32576
2017-09-25T09:18:00.184Z,38112
2017-09-25T09:19:01.600Z,22592
2017-09-25T09:20:03.032Z,26528
2017-09-25T09:21:04.447Z,19840
2017-09-25T09:22:05.900Z,18924
2017-09-25T09:23:07.329Z,25184
2017-09-25T09:24:08.820Z,39424
2017-09-25T09:25:10.221Z,38336
2017-09-25T09:26:12.113Z,37536
2017-09-25T09:27:13.931Z,34432
2017-09-25T09:28:15.432Z,37760
2017-09-25T09:29:16.857Z,37760
2017-09-25T09:30:18.356Z,30528
2017-09-25T09:31:19.856Z,42400
2017-09-25T09:32:21.380Z,39552
2017-09-25T09:33:22.787Z,45536
2017-09-25T09:34:24.260Z,46176
2017-09-25T09:35:25.659Z,47232
2017-09-25T09:36:27.085Z,48224
2017-09-25T09:37:28.471Z,46208
2017-09-25T09:38:29.872Z,44192
2017-09-25T09:39:31.293Z,38272
2017-09-25T09:40:32.769Z,28960
2017-09-25T09:41:34.160Z,32576
2017-09-25T09:42:35.653Z,23168
2017-09-25T09:43:37.037Z,36960
2017-09-25T09:44:38.524Z,31520
2017-09-25T09:45:39.905Z,36960
2017-09-25T09:46:41.397Z,49504
2017-09-25T09:47:42.795Z,54752
2017-09-25T09:48:44.281Z,19712
2017-09-25T09:49:45.661Z,19456
2017-09-25T09:50:47.159Z,23616
2017-09-25T09:51:48.551Z,58688
2017-09-25T09:52:50.040Z,54688
2017-09-25T09:53:51.424Z,51232
2017-09-25T09:54:52.921Z,28288
2017-09-25T09:55:54.309Z,25088
2017-09-25T09:56:55.809Z,23488
2017-09-25T09:57:57.199Z,23488
2017-09-25T09:58:58.685Z,28224
2017-09-25T10:00:00.079Z,41728
2017-09-25T10:01:01.567Z,35264
2017-09-25T10:02:02.958Z,30592
2017-09-25T10:03:04.452Z,28832
2017-09-25T10:04:05.833Z,31200
2017-09-25T10:05:07.435Z,65568
2017-09-25T10:06:08.825Z,71168
2017-09-25T10:07:10.312Z,61952
2017-09-25T10:08:11.699Z,59296
2017-09-25T10:09:13.213Z,55008
2017-09-25T10:10:14.588Z,49952
2017-09-25T10:11:16.081Z,53984
2017-09-25T10:12:17.470Z,49440
2017-09-25T10:13:18.961Z,60416
2017-09-25T10:14:20.352Z,59264
2017-09-25T10:15:21.875Z,56320
2017-09-25T10:16:23.310Z,48032
2017-09-25T10:17:25.053Z,54528
2017-09-25T10:18:26.472Z,59360
2017-09-25T10:19:27.916Z,56352
2017-09-25T10:20:29.324Z,28192
2017-09-25T10:21:30.816Z,41472
2017-09-25T10:22:32.208Z,29792
2017-09-25T10:23:33.679Z,85920
2017-09-25T10:24:35.070Z,102816
2017-09-25T10:25:36.564Z,133376
2017-09-25T10:26:37.970Z,93632
2017-09-25T10:27:39.452Z,92064
2017-09-25T10:28:40.829Z,76864
2017-09-25T10:29:42.326Z,36096
2017-09-25T10:30:43.714Z,20768
2017-09-25T10:31:45.218Z,16684
2017-09-25T10:32:46.599Z,15844
2017-09-25T10:33:48.095Z,15216
2017-09-25T10:34:49.476Z,16888
2017-09-25T10:35:50.972Z,46464
2017-09-25T10:36:52.353Z,24960
2017-09-25T10:37:53.854Z,24384
2017-09-25T10:38:55.239Z,53312
2017-09-25T10:39:56.744Z,31392
2017-09-25T10:40:58.134Z,28480
2017-09-25T10:41:59.618Z,21056
2017-09-25T10:43:01.018Z,24576
2017-09-25T10:44:02.501Z,49536
2017-09-25T10:45:03.884Z,39872
2017-09-25T10:46:05.378Z,22400
2017-09-25T10:47:06.766Z,49696
2017-09-25T10:48:08.264Z,42720
2017-09-25T10:49:09.647Z,48320
2017-09-25T10:50:11.224Z,48160
2017-09-25T10:51:12.617Z,48256
2017-09-25T10:52:14.335Z,49856
2017-09-25T10:53:16.098Z,50592
2017-09-25T10:54:17.833Z,44224
2017-09-25T10:55:19.222Z,32032
2017-09-25T10:56:20.716Z,30560
2017-09-25T10:57:22.100Z,36960
2017-09-25T10:58:23.595Z,32448
2017-09-25T10:59:24.981Z,34208
2017-09-25T11:00:26.478Z,35936
2017-09-25T11:01:27.863Z,47072
2017-09-25T11:02:29.359Z,39744
2017-09-25T11:03:30.751Z,54464
2017-09-25T11:04:32.242Z,58144
2017-09-25T11:05:33.625Z,58688
2017-09-25T11:06:35.121Z,52224
2017-09-25T11:07:36.508Z,47712
2017-09-25T11:08:38.042Z,30176
2017-09-25T11:09:39.388Z,31456
2017-09-25T11:10:40.887Z,42336
2017-09-25T11:11:42.271Z,38016
2017-09-25T11:12:43.771Z,55648
2017-09-25T11:13:45.156Z,36736
2017-09-25T11:14:46.674Z,34880
2017-09-25T11:15:48.056Z,33696
2017-09-25T11:16:49.535Z,31552
2017-09-25T11:17:50.917Z,30016
2017-09-25T11:18:52.439Z,29120
2017-09-25T11:19:53.842Z,29632
2017-09-25T11:20:55.612Z,29280
2017-09-25T11:21:57.000Z,30080
2017-09-25T11:22:58.886Z,32736
2017-09-25T11:24:00.267Z,34720
2017-09-25T11:25:01.987Z,34880
2017-09-25T11:26:03.746Z,24288
2017-09-25T11:27:05.491Z,22432
2017-09-25T11:28:06.872Z,21568
2017-09-25T11:29:08.370Z,21728
2017-09-25T11:30:09.752Z,22240
2017-09-25T11:31:11.244Z,23040
2017-09-25T11:32:12.629Z,24032
2017-09-25T11:33:14.130Z,25824
2017-09-25T11:34:15.520Z,27616
2017-09-25T11:35:17.327Z,29376
2017-09-25T11:36:18.705Z,30464
2017-09-25T11:37:20.199Z,31392
2017-09-25T11:38:21.583Z,30976
2017-09-25T11:39:23.385Z,30208
2017-09-25T11:40:24.772Z,29856
2017-09-25T11:41:27.523Z,30176
2017-09-25T11:42:29.286Z,30592
2017-09-25T11:43:31.005Z,30752
2017-09-25T11:44:32.606Z,31072
2017-09-25T11:45:34.182Z,31488
2017-09-25T11:46:35.561Z,31648
2017-09-25T11:47:37.382Z,32416
2017-09-25T11:48:38.764Z,33984
2017-09-25T11:49:41.849Z,35264
2017-09-25T11:50:43.612Z,35232
2017-09-25T11:51:45.194Z,34496
2017-09-25T11:52:46.567Z,33152
2017-09-25T11:53:48.081Z,32864
2017-09-25T11:54:49.462Z,34432
2017-09-25T11:55:50.948Z,36576
2017-09-25T11:56:52.324Z,40576
2017-09-25T11:57:53.829Z,38848
2017-09-25T11:58:55.214Z,45280
2017-09-25T11:59:56.712Z,36768
2017-09-25T12:00:58.094Z,36032
2017-09-25T12:01:59.624Z,34240
2017-09-25T12:03:01.010Z,32544
2017-09-25T12:04:02.476Z,30048
2017-09-25T12:05:03.860Z,28096
2017-09-25T12:06:05.361Z,27200
2017-09-25T12:07:06.741Z,27328
2017-09-25T12:08:08.121Z,27296
2017-09-25T12:09:09.514Z,26752
2017-09-25T12:10:11.125Z,26240
2017-09-25T12:11:12.915Z,26112
2017-09-25T12:12:14.644Z,26400
2017-09-25T12:13:16.052Z,26592
2017-09-25T12:14:17.546Z,26496
2017-09-25T12:15:19.318Z,26272
2017-09-25T12:16:21.006Z,25440
2017-09-25T12:17:22.388Z,24736
2017-09-25T12:18:23.883Z,24256
2017-09-25T12:19:25.259Z,24096
2017-09-25T12:20:27.037Z,25088
2017-09-25T12:21:28.656Z,26688
2017-09-25T12:22:30.631Z,28256
2017-09-25T12:23:32.007Z,29472
2017-09-25T12:24:34.163Z,29440
2017-09-25T12:25:35.550Z,28544
2017-09-25T12:26:37.381Z,26432
2017-09-25T12:27:38.777Z,24576
2017-09-25T12:28:40.439Z,23200
2017-09-25T12:29:41.833Z,22176
2017-09-25T12:30:43.311Z,21472
2017-09-25T12:31:44.650Z,21024
2017-09-25T12:32:46.203Z,20928
2017-09-25T12:33:47.585Z,20608
2017-09-25T12:34:49.321Z,19840
2017-09-25T12:35:50.701Z,18720
2017-09-25T12:36:52.571Z,17920
2017-09-25T12:37:53.953Z,17568
2017-09-25T12:38:55.463Z,17920
2017-09-25T12:39:57.438Z,18720
2017-09-25T12:40:58.960Z,19136
2017-09-25T12:42:00.724Z,19104
2017-09-25T12:43:02.458Z,19168
2017-09-25T12:44:03.909Z,19680
2017-09-25T12:45:05.289Z,19680
2017-09-25T12:46:06.672Z,20128
2017-09-25T12:47:08.354Z,20736
2017-09-25T12:48:09.625Z,20928
2017-09-25T12:49:11.050Z,20768
2017-09-25T12:50:12.516Z,20416
2017-09-25T12:51:13.931Z,19936
2017-09-25T12:52:15.315Z,19680
2017-09-25T12:53:16.813Z,19584
2017-09-25T12:54:18.196Z,19616
2017-09-25T12:55:19.817Z,19808
2017-09-25T12:56:21.197Z,20128
2017-09-25T12:57:22.878Z,20544
2017-09-25T12:58:24.260Z,20736
2017-09-25T12:59:25.759Z,21152
2017-09-25T13:00:27.144Z,21312
2017-09-25T13:01:28.663Z,21536
2017-09-25T13:02:30.324Z,21888
2017-09-25T13:03:31.831Z,22432
2017-09-25T13:04:33.290Z,22688
2017-09-25T13:05:34.708Z,22816
2017-09-25T13:06:36.092Z,22976
2017-09-25T13:07:37.591Z,22976
2017-09-25T13:08:39.392Z,22496
2017-09-25T13:09:40.777Z,22080
2017-09-25T13:10:42.170Z,22048
2017-09-25T13:11:43.658Z,22240
2017-09-25T13:12:45.040Z,22592
2017-09-25T13:13:46.430Z,22976
2017-09-25T13:14:47.808Z,23136
2017-09-25T13:15:49.415Z,23200
2017-09-25T13:16:50.794Z,23232
2017-09-25T13:17:52.370Z,23264
2017-09-25T13:18:53.752Z,23328
2017-09-25T13:19:55.254Z,23488
2017-09-25T13:20:56.635Z,23680
2017-09-25T13:21:58.135Z,23616
2017-09-25T13:22:59.537Z,23168
2017-09-25T13:24:00.972Z,22784
2017-09-25T13:25:02.352Z,22560
2017-09-25T13:26:03.899Z,22400
2017-09-25T13:27:05.275Z,22688
2017-09-25T13:28:06.783Z,23232
2017-09-25T13:29:08.169Z,23904
2017-09-25T13:30:09.675Z,24384
2017-09-25T13:31:11.046Z,24608
2017-09-25T13:32:12.546Z,24704
2017-09-25T13:33:13.930Z,24864
2017-09-25T13:34:15.436Z,25088
2017-09-25T13:35:16.817Z,25728
2017-09-25T13:36:18.312Z,26176
2017-09-25T13:37:19.690Z,26432
2017-09-25T13:38:21.092Z,26752
2017-09-25T13:39:22.464Z,26688
2017-09-25T13:40:24.077Z,26304
2017-09-25T13:41:25.458Z,25600
2017-09-25T13:42:26.955Z,25152
2017-09-25T13:43:28.404Z,25024
2017-09-25T13:44:29.790Z,25248
2017-09-25T13:45:31.220Z,25216
2017-09-25T13:46:32.721Z,25248
2017-09-25T13:47:34.102Z,25344
2017-09-25T13:48:35.701Z,25440
2017-09-25T13:49:37.087Z,25504
2017-09-25T13:50:38.489Z,25376
2017-09-25T13:51:40.081Z,25184
2017-09-25T13:52:41.573Z,25088
2017-09-25T13:53:42.982Z,24704
2017-09-25T13:54:44.480Z,24128
2017-09-25T13:55:46.243Z,23520
2017-09-25T13:56:47.664Z,23136